Aegean III — SXHY — position and weather

sailwx.info

Track history (hours):
 
Tides and Currents Weather Stations Pressure Air Temp Water Temp Dewpoint Dewpoint Depression Visibility Wind Speed Wind Dir Waves Ship Positions

Aegean III

Last reported at 2017-Nov-16 00:55 UTC. Time now 2017-Nov-17 20:52 UTC.
Position N 38°08' E 022°37'.

Length 80 m; draft 5.8 m.

Type: Tanker. MMSI: 240708000.

Date/timePositionNaut miles runAvg speedWind from/ knotsBaromVisibWave heightAir tempDewpointWater temp
2017-Nov-16 00:55N 38°08' E 022°37'4 8.3
2017-Nov-16 00:30N 38°06' E 022°40'4 8.6
2017-Nov-15 23:59N 38°04' E 022°45'4 8.3
2017-Nov-15 23:30N 38°01' E 022°49'4 7.1
2017-Nov-15 23:00N 37°59' E 022°52'3 7.0
2017-Nov-15 22:31N 37°58' E 022°56'4 5.1
2017-Nov-15 21:47N 37°55' E 023°00'1 4.6
2017-Nov-15 21:30N 37°55' E 023°01'4 8.2
2017-Nov-15 21:01N 37°54' E 023°07'5 9.5
2017-Nov-15 20:30N 37°55' E 023°12'5 9.7
2017-Nov-15 20:00N 37°56' E 023°18'5 9.4
2017-Nov-15 19:30N 37°57' E 023°24'3 6.7
2017-Nov-15 19:00N 38°00' E 023°26'5 9.1
2017-Nov-15 18:30N 38°02' E 023°32'0 0.7
2017-Nov-15 18:00N 38°02' E 023°32'0 0.0
2017-Nov-15 17:03N 38°02' E 023°32'0 0.0
2017-Nov-15 17:01N 38°02' E 023°32'0 0.0
2017-Nov-15 16:30N 38°02' E 023°32'0 0.0
2017-Nov-15 16:00N 38°02' E 023°32'0 0.0
2017-Nov-15 14:30N 38°02' E 023°32'0 0.0
2017-Nov-15 14:00N 38°02' E 023°32'0 0.0
2017-Nov-15 13:30N 38°02' E 023°32'0 0.0
2017-Nov-15 13:00N 38°02' E 023°32'0 0.0
2017-Nov-15 12:30N 38°02' E 023°32'0 0.0
2017-Nov-15 12:00N 38°02' E 023°32'0 0.0
2017-Nov-15 11:30N 38°02' E 023°32'0 0.0
2017-Nov-15 11:00N 38°02' E 023°32'0 0.0
2017-Nov-15 10:30N 38°02' E 023°32'0 0.0
2017-Nov-15 10:00N 38°02' E 023°32'0 0.0
2017-Nov-15 09:30N 38°02' E 023°32'0 0.0
2017-Nov-15 09:00N 38°02' E 023°32'0 0.0
2017-Nov-15 08:30N 38°02' E 023°32'0 0.0
2017-Nov-15 08:00N 38°02' E 023°32'0 0.0
2017-Nov-15 07:30N 38°02' E 023°32'0 0.0
2017-Nov-15 07:00N 38°02' E 023°32'0 0.0
2017-Nov-15 06:30N 38°02' E 023°32'0 0.0
2017-Nov-15 06:00N 38°02' E 023°32'0 0.0
2017-Nov-15 05:30N 38°02' E 023°32'0 0.0
2017-Nov-15 05:00N 38°02' E 023°32'0 0.0
2017-Nov-15 04:30N 38°02' E 023°32'0 0.0
2017-Nov-15 04:00N 38°02' E 023°32'0 0.0
2017-Nov-15 03:30N 38°02' E 023°32'0 0.0
2017-Nov-15 03:00N 38°02' E 023°32'0 0.0
2017-Nov-15 02:31N 38°02' E 023°32'0 0.0
2017-Nov-15 02:00N 38°02' E 023°32'0 0.0
2017-Nov-15 01:31N 38°02' E 023°32'0 0.0
2017-Nov-15 01:00N 38°02' E 023°32'0 0.0
2017-Nov-15 00:30N 38°02' E 023°32'0 0.0
2017-Nov-15 00:01N 38°02' E 023°32'0 0.0
2017-Nov-14 23:31N 38°02' E 023°32'0 0.0
2017-Nov-14 23:01N 38°02' E 023°32'1 2.1
2017-Nov-14 22:31N 38°02' E 023°31'0 0.1
2017-Nov-14 22:01N 38°02' E 023°31'0 0.0
2017-Nov-14 21:31N 38°02' E 023°31'0 0.0
2017-Nov-14 21:00N 38°02' E 023°31'0 0.0
2017-Nov-14 20:30N 38°02' E 023°31'0 0.0
2017-Nov-14 20:00N 38°02' E 023°31'0 0.0
2017-Nov-14 19:30N 38°02' E 023°31'0 0.0
2017-Nov-14 19:01N 38°02' E 023°31'0 0.0
2017-Nov-14 18:31N 38°02' E 023°31'0 0.0
2017-Nov-14 18:00N 38°02' E 023°31'0 0.0
2017-Nov-14 17:31N 38°02' E 023°31'0 0.0
2017-Nov-14 17:00N 38°02' E 023°31'0 0.0
2017-Nov-14 16:30N 38°02' E 023°31'0 0.0
2017-Nov-14 16:00N 38°02' E 023°31'0 0.0
2017-Nov-14 15:30N 38°02' E 023°31'0 0.0
2017-Nov-14 15:01N 38°02' E 023°31'0 0.0
2017-Nov-14 14:31N 38°02' E 023°31'0 0.0
2017-Nov-14 14:00N 38°02' E 023°31'0 0.0
2017-Nov-14 13:30N 38°02' E 023°31'0 0.0
2017-Nov-14 13:00N 38°02' E 023°31'0 0.0
2017-Nov-14 12:30N 38°02' E 023°31'0 0.0
2017-Nov-14 12:00N 38°02' E 023°31'0 0.0
2017-Nov-14 11:30N 38°02' E 023°31'0 0.0
2017-Nov-14 11:00N 38°02' E 023°31'0 0.0
2017-Nov-14 10:30N 38°02' E 023°31'0 0.0
2017-Nov-14 10:00N 38°02' E 023°31'0 0.0
2017-Nov-14 09:30N 38°02' E 023°31'0 0.0
2017-Nov-14 09:01N 38°02' E 023°31'0 0.0
2017-Nov-14 08:30N 38°02' E 023°31'0 0.0
2017-Nov-14 08:01N 38°02' E 023°31'0 0.0
2017-Nov-14 07:31N 38°02' E 023°31'0 0.0
2017-Nov-14 07:01N 38°02' E 023°31'0 0.0
2017-Nov-14 06:30N 38°02' E 023°31'0 0.5
2017-Nov-14 06:01N 38°02' E 023°31'0 0.5
2017-Nov-14 05:30N 38°02' E 023°31'0 1.0
2017-Nov-14 05:01N 38°02' E 023°32'0 0.1
2017-Nov-14 04:30N 38°02' E 023°32'0 0.0
2017-Nov-14 04:00N 38°02' E 023°32'0 0.0
2017-Nov-14 03:30N 38°02' E 023°32'0 0.0
2017-Nov-14 03:00N 38°02' E 023°32'0 0.0
2017-Nov-14 02:31N 38°02' E 023°32'0 0.0
2017-Nov-14 02:01N 38°02' E 023°32'0 0.0
2017-Nov-14 01:30N 38°02' E 023°32'0 0.0
2017-Nov-14 01:01N 38°02' E 023°32'0 0.0
2017-Nov-14 00:31N 38°02' E 023°32'0 0.0
2017-Nov-14 00:00N 38°02' E 023°32'0 0.0
2017-Nov-13 23:31N 38°02' E 023°32'0 0.0
2017-Nov-13 23:01N 38°02' E 023°32'0 0.0
2017-Nov-13 22:30N 38°02' E 023°32'0 0.0
2017-Nov-13 22:01N 38°02' E 023°32'  
2017-Nov-10 00:53N 38°07' E 022°38'4 8.1
2017-Nov-10 00:26N 38°05' E 022°42'4 8.4
2017-Nov-10 00:00N 38°03' E 022°46'4 7.6
2017-Nov-09 23:30N 38°01' E 022°50'3 7.1
2017-Nov-09 23:00N 37°59' E 022°54'4 7.0
2017-Nov-09 22:30N 37°57' E 022°58'3 3.8
2017-Nov-09 21:49N 37°55' E 023°00'2 5.3
2017-Nov-09 21:30N 37°55' E 023°02'4 8.9
2017-Nov-09 21:00N 37°54' E 023°08'5 9.2
2017-Nov-09 20:30N 37°55' E 023°13'5 9.3
2017-Nov-09 20:00N 37°56' E 023°19'5 9.2
2017-Nov-09 19:30N 37°57' E 023°25'3 6.7
2017-Nov-09 19:00N 38°00' E 023°27'4 8.8
2017-Nov-09 18:30N 38°02' E 023°32'0 0.5
2017-Nov-09 18:00N 38°02' E 023°32'0 0.0
2017-Nov-09 17:30N 38°02' E 023°32'0 0.0
2017-Nov-09 17:00N 38°02' E 023°32'0 0.0
2017-Nov-09 16:30N 38°02' E 023°32'0 0.0
2017-Nov-09 16:00N 38°02' E 023°32'0 0.0
2017-Nov-09 15:30N 38°02' E 023°32'0 0.0
2017-Nov-09 15:00N 38°02' E 023°32'0 0.0
2017-Nov-09 14:30N 38°02' E 023°32'0 0.0
2017-Nov-09 14:00N 38°02' E 023°32'0 0.0
2017-Nov-09 13:30N 38°02' E 023°32'0 0.0
2017-Nov-09 13:00N 38°02' E 023°32'0 0.0
2017-Nov-09 12:30N 38°02' E 023°32'0 0.0
2017-Nov-09 12:00N 38°02' E 023°32'0 0.0
2017-Nov-09 11:30N 38°02' E 023°32'0 0.0
2017-Nov-09 11:00N 38°02' E 023°32'0 0.0
2017-Nov-09 10:30N 38°02' E 023°32'0 0.0
2017-Nov-09 10:00N 38°02' E 023°32'0 0.0
2017-Nov-09 09:30N 38°02' E 023°32'0 0.0
2017-Nov-09 09:00N 38°02' E 023°32'0 0.0
2017-Nov-09 08:30N 38°02' E 023°32'0 0.0
2017-Nov-09 08:00N 38°02' E 023°32'0 0.0
2017-Nov-09 07:30N 38°02' E 023°32'0 0.0
2017-Nov-09 07:00N 38°02' E 023°32'0 0.0
2017-Nov-09 06:30N 38°02' E 023°32'0 0.0
2017-Nov-09 06:00N 38°02' E 023°32'0 0.0
2017-Nov-09 05:30N 38°02' E 023°32'0 0.0
2017-Nov-09 05:00N 38°02' E 023°32'0 0.0
2017-Nov-09 04:30N 38°02' E 023°32'0 0.0
2017-Nov-09 04:00N 38°02' E 023°32'0 0.0
2017-Nov-09 03:30N 38°02' E 023°32'0 0.0
2017-Nov-09 03:00N 38°02' E 023°32'0 0.0
2017-Nov-09 02:30N 38°02' E 023°32'0 0.0
2017-Nov-09 02:00N 38°02' E 023°32'0 0.0
2017-Nov-09 01:30N 38°02' E 023°32'0 0.0
2017-Nov-09 01:00N 38°02' E 023°32'0 0.0
2017-Nov-09 00:30N 38°02' E 023°32'0 0.0
2017-Nov-09 00:00N 38°02' E 023°32'0 0.0
2017-Nov-08 23:30N 38°02' E 023°32'0 0.0
2017-Nov-08 23:00N 38°02' E 023°32'0 0.0
2017-Nov-08 22:30N 38°02' E 023°32'0 0.0
2017-Nov-08 22:00N 38°02' E 023°32'0 0.0
2017-Nov-08 21:30N 38°02' E 023°32'0 0.0
2017-Nov-08 21:00N 38°02' E 023°32'0 0.0
2017-Nov-08 20:30N 38°02' E 023°32'0 0.0
2017-Nov-08 20:00N 38°02' E 023°32'0 0.0
2017-Nov-08 19:30N 38°02' E 023°32'0 0.0
2017-Nov-08 19:00N 38°02' E 023°32'0 0.0
2017-Nov-08 18:30N 38°02' E 023°32'0 0.0
2017-Nov-08 18:00N 38°02' E 023°32'0 0.0
2017-Nov-08 17:30N 38°02' E 023°32'0 0.0
2017-Nov-08 17:00N 38°02' E 023°32'0 0.0
2017-Nov-08 16:30N 38°02' E 023°32'0 0.0
2017-Nov-08 16:00N 38°02' E 023°32'0 0.0
2017-Nov-08 15:30N 38°02' E 023°32'0 0.0
2017-Nov-08 15:00N 38°02' E 023°32'0 0.0
2017-Nov-08 14:30N 38°02' E 023°32'0 0.0
2017-Nov-08 14:00N 38°02' E 023°32'0 0.0
2017-Nov-08 13:30N 38°02' E 023°32'0 0.0
2017-Nov-08 13:00N 38°02' E 023°32'0 0.0
2017-Nov-08 12:30N 38°02' E 023°32'0 0.0
2017-Nov-08 12:00N 38°02' E 023°32'0 0.0
2017-Nov-08 11:30N 38°02' E 023°32'0 0.0
2017-Nov-08 11:00N 38°02' E 023°32'0 0.0
2017-Nov-08 10:30N 38°02' E 023°32'0 0.0
2017-Nov-08 10:00N 38°02' E 023°32'0 0.0
2017-Nov-08 09:30N 38°02' E 023°32'0 0.0
2017-Nov-08 09:00N 38°02' E 023°32'0 0.0
2017-Nov-08 08:30N 38°02' E 023°32'0 0.0
2017-Nov-08 08:00N 38°02' E 023°32'0 0.0
2017-Nov-08 07:30N 38°02' E 023°32'0 0.0
2017-Nov-08 07:00N 38°02' E 023°32'0 0.6
2017-Nov-08 06:30N 38°02' E 023°32'0 0.0
2017-Nov-08 06:00N 38°02' E 023°32'0 0.0
2017-Nov-08 05:30N 38°02' E 023°32'0 0.0
2017-Nov-08 05:00N 38°02' E 023°32'0 0.0
2017-Nov-08 04:30N 38°02' E 023°32'0 0.0
2017-Nov-08 04:00N 38°02' E 023°32'0 0.0
2017-Nov-08 03:30N 38°02' E 023°32'0 0.0
2017-Nov-08 03:00N 38°02' E 023°32'0 0.0
2017-Nov-08 02:30N 38°02' E 023°32'0 0.0
2017-Nov-08 02:00N 38°02' E 023°32'0 0.0
2017-Nov-08 01:30N 38°02' E 023°32'0 0.0
2017-Nov-08 01:00N 38°02' E 023°32'0 0.0
2017-Nov-08 00:30N 38°02' E 023°32'0 0.0
2017-Nov-08 00:00N 38°02' E 023°32'0 0.5
2017-Nov-07 23:30N 38°02' E 023°31'1 1.0
2017-Nov-07 23:00N 38°02' E 023°31'0 0.0
2017-Nov-07 22:30N 38°02' E 023°31'0 0.0
2017-Nov-07 22:00N 38°02' E 023°31'0 0.0
2017-Nov-07 21:30N 38°02' E 023°31'0 0.0
2017-Nov-07 21:00N 38°02' E 023°31'0 0.0
2017-Nov-07 20:30N 38°02' E 023°31'0 0.0
2017-Nov-07 20:00N 38°02' E 023°31'0 0.0
2017-Nov-07 19:30N 38°02' E 023°31'0 0.0
2017-Nov-07 19:00N 38°02' E 023°31'0 0.0
2017-Nov-07 18:30N 38°02' E 023°31'0 0.0
2017-Nov-07 18:00N 38°02' E 023°31'0 0.0
2017-Nov-07 17:30N 38°02' E 023°31'0 0.0
2017-Nov-07 17:00N 38°02' E 023°31'0 0.0
2017-Nov-07 16:30N 38°02' E 023°31'0 0.0
2017-Nov-07 16:00N 38°02' E 023°31'0 0.0
2017-Nov-07 15:30N 38°02' E 023°31'0 0.0
2017-Nov-07 15:00N 38°02' E 023°31'0 0.0
2017-Nov-07 14:30N 38°02' E 023°31'0 0.0
2017-Nov-07 14:00N 38°02' E 023°31'2 5.0
2017-Nov-07 13:30N 38°02' E 023°34'1 2.9
2017-Nov-07 13:00N 38°02' E 023°36'0 0.0
2017-Nov-07 12:30N 38°02' E 023°36'0 0.0
2017-Nov-07 12:00N 38°02' E 023°36'0 0.0
2017-Nov-07 11:29N 38°02' E 023°36'0 0.0
2017-Nov-07 11:00N 38°02' E 023°36'0 0.0
2017-Nov-07 10:30N 38°02' E 023°36'3 6.0
2017-Nov-07 10:01N 38°02' E 023°32'0 0.2
2017-Nov-07 09:30N 38°02' E 023°32'0 0.0
2017-Nov-07 09:00N 38°02' E 023°32'0 0.0
2017-Nov-07 08:30N 38°02' E 023°32'0 0.7
2017-Nov-07 08:00N 38°02' E 023°32'0 0.1
2017-Nov-07 07:30N 38°02' E 023°32'0 0.6
2017-Nov-07 07:00N 38°02' E 023°32'0 0.0
2017-Nov-07 06:30N 38°02' E 023°32'0 0.0
2017-Nov-07 06:00N 38°02' E 023°32'0 0.0
2017-Nov-07 05:30N 38°02' E 023°32'0 0.0
2017-Nov-07 05:00N 38°02' E 023°32'0 0.0
2017-Nov-07 04:30N 38°02' E 023°32'0 0.0
2017-Nov-07 04:00N 38°02' E 023°32'0 0.0
2017-Nov-07 03:30N 38°02' E 023°32'0 0.0
2017-Nov-07 03:00N 38°02' E 023°32'0 0.0
2017-Nov-07 02:30N 38°02' E 023°32'0 0.0
2017-Nov-07 02:00N 38°02' E 023°32'0 0.0
2017-Nov-07 01:30N 38°02' E 023°32'0 0.0
2017-Nov-07 01:00N 38°02' E 023°32'0 0.0
2017-Nov-07 00:30N 38°02' E 023°32'0 0.0
2017-Nov-07 00:00N 38°02' E 023°32'0 0.0
2017-Nov-06 23:30N 38°02' E 023°32'0 0.0
2017-Nov-06 23:00N 38°02' E 023°32'0 0.0
2017-Nov-06 22:30N 38°02' E 023°32'0 0.0
2017-Nov-06 22:00N 38°02' E 023°32'0 0.0
2017-Nov-06 21:30N 38°02' E 023°32'0 0.0
2017-Nov-06 21:00N 38°02' E 023°32'0 0.0
2017-Nov-06 20:30N 38°02' E 023°32'  
Track history (hours):
 
Tides and Currents Weather Stations Pressure Air Temp Water Temp Dewpoint Dewpoint Depression Visibility Wind Speed Wind Dir Waves Ship Positions

Aegean III

Last reported at 2017-Nov-16 00:55 UTC. Time now 2017-Nov-17 20:52 UTC.
Position N 38°08' E 022°37'.

Length 80 m; draft 5.8 m.

Type: Tanker. MMSI: 240708000.

Date/timePositionNaut miles runAvg speedWind from/ knotsBaromVisibWave heightAir tempDewpointWater temp
2017-Nov-16 00:55N 38°08' E 022°37'4 8.3
2017-Nov-16 00:30N 38°06' E 022°40'4 8.6
2017-Nov-15 23:59N 38°04' E 022°45'4 8.3
2017-Nov-15 23:30N 38°01' E 022°49'4 7.1
2017-Nov-15 23:00N 37°59' E 022°52'3 7.0
2017-Nov-15 22:31N 37°58' E 022°56'4 5.1
2017-Nov-15 21:47N 37°55' E 023°00'1 4.6
2017-Nov-15 21:30N 37°55' E 023°01'4 8.2
2017-Nov-15 21:01N 37°54' E 023°07'5 9.5
2017-Nov-15 20:30N 37°55' E 023°12'5 9.7
2017-Nov-15 20:00N 37°56' E 023°18'5 9.4
2017-Nov-15 19:30N 37°57' E 023°24'3 6.7
2017-Nov-15 19:00N 38°00' E 023°26'5 9.1
2017-Nov-15 18:30N 38°02' E 023°32'0 0.7
2017-Nov-15 18:00N 38°02' E 023°32'0 0.0
2017-Nov-15 17:03N 38°02' E 023°32'0 0.0
2017-Nov-15 17:01N 38°02' E 023°32'0 0.0
2017-Nov-15 16:30N 38°02' E 023°32'0 0.0
2017-Nov-15 16:00N 38°02' E 023°32'0 0.0
2017-Nov-15 14:30N 38°02' E 023°32'0 0.0
2017-Nov-15 14:00N 38°02' E 023°32'0 0.0
2017-Nov-15 13:30N 38°02' E 023°32'0 0.0
2017-Nov-15 13:00N 38°02' E 023°32'0 0.0
2017-Nov-15 12:30N 38°02' E 023°32'0 0.0
2017-Nov-15 12:00N 38°02' E 023°32'0 0.0
2017-Nov-15 11:30N 38°02' E 023°32'0 0.0
2017-Nov-15 11:00N 38°02' E 023°32'0 0.0
2017-Nov-15 10:30N 38°02' E 023°32'0 0.0
2017-Nov-15 10:00N 38°02' E 023°32'0 0.0
2017-Nov-15 09:30N 38°02' E 023°32'0 0.0
2017-Nov-15 09:00N 38°02' E 023°32'0 0.0
2017-Nov-15 08:30N 38°02' E 023°32'0 0.0
2017-Nov-15 08:00N 38°02' E 023°32'0 0.0
2017-Nov-15 07:30N 38°02' E 023°32'0 0.0
2017-Nov-15 07:00N 38°02' E 023°32'0 0.0
2017-Nov-15 06:30N 38°02' E 023°32'0 0.0
2017-Nov-15 06:00N 38°02' E 023°32'0 0.0
2017-Nov-15 05:30N 38°02' E 023°32'0 0.0
2017-Nov-15 05:00N 38°02' E 023°32'0 0.0
2017-Nov-15 04:30N 38°02' E 023°32'0 0.0
2017-Nov-15 04:00N 38°02' E 023°32'0 0.0
2017-Nov-15 03:30N 38°02' E 023°32'0 0.0
2017-Nov-15 03:00N 38°02' E 023°32'0 0.0
2017-Nov-15 02:31N 38°02' E 023°32'0 0.0
2017-Nov-15 02:00N 38°02' E 023°32'0 0.0
2017-Nov-15 01:31N 38°02' E 023°32'0 0.0
2017-Nov-15 01:00N 38°02' E 023°32'0 0.0
2017-Nov-15 00:30N 38°02' E 023°32'0 0.0
2017-Nov-15 00:01N 38°02' E 023°32'0 0.0
2017-Nov-14 23:31N 38°02' E 023°32'0 0.0
2017-Nov-14 23:01N 38°02' E 023°32'1 2.1
2017-Nov-14 22:31N 38°02' E 023°31'0 0.1
2017-Nov-14 22:01N 38°02' E 023°31'0 0.0
2017-Nov-14 21:31N 38°02' E 023°31'0 0.0
2017-Nov-14 21:00N 38°02' E 023°31'0 0.0
2017-Nov-14 20:30N 38°02' E 023°31'0 0.0
2017-Nov-14 20:00N 38°02' E 023°31'0 0.0
2017-Nov-14 19:30N 38°02' E 023°31'0 0.0
2017-Nov-14 19:01N 38°02' E 023°31'0 0.0
2017-Nov-14 18:31N 38°02' E 023°31'0 0.0
2017-Nov-14 18:00N 38°02' E 023°31'0 0.0
2017-Nov-14 17:31N 38°02' E 023°31'0 0.0
2017-Nov-14 17:00N 38°02' E 023°31'0 0.0
2017-Nov-14 16:30N 38°02' E 023°31'0 0.0
2017-Nov-14 16:00N 38°02' E 023°31'0 0.0
2017-Nov-14 15:30N 38°02' E 023°31'0 0.0
2017-Nov-14 15:01N 38°02' E 023°31'0 0.0
2017-Nov-14 14:31N 38°02' E 023°31'0 0.0
2017-Nov-14 14:00N 38°02' E 023°31'0 0.0
2017-Nov-14 13:30N 38°02' E 023°31'0 0.0
2017-Nov-14 13:00N 38°02' E 023°31'0 0.0
2017-Nov-14 12:30N 38°02' E 023°31'0 0.0
2017-Nov-14 12:00N 38°02' E 023°31'0 0.0
2017-Nov-14 11:30N 38°02' E 023°31'0 0.0
2017-Nov-14 11:00N 38°02' E 023°31'0 0.0
2017-Nov-14 10:30N 38°02' E 023°31'0 0.0
2017-Nov-14 10:00N 38°02' E 023°31'0 0.0
2017-Nov-14 09:30N 38°02' E 023°31'0 0.0
2017-Nov-14 09:01N 38°02' E 023°31'0 0.0
2017-Nov-14 08:30N 38°02' E 023°31'0 0.0
2017-Nov-14 08:01N 38°02' E 023°31'0 0.0
2017-Nov-14 07:31N 38°02' E 023°31'0 0.0
2017-Nov-14 07:01N 38°02' E 023°31'0 0.0
2017-Nov-14 06:30N 38°02' E 023°31'0 0.5
2017-Nov-14 06:01N 38°02' E 023°31'0 0.5
2017-Nov-14 05:30N 38°02' E 023°31'0 1.0
2017-Nov-14 05:01N 38°02' E 023°32'0 0.1
2017-Nov-14 04:30N 38°02' E 023°32'0 0.0
2017-Nov-14 04:00N 38°02' E 023°32'0 0.0
2017-Nov-14 03:30N 38°02' E 023°32'0 0.0
2017-Nov-14 03:00N 38°02' E 023°32'0 0.0
2017-Nov-14 02:31N 38°02' E 023°32'0 0.0
2017-Nov-14 02:01N 38°02' E 023°32'0 0.0
2017-Nov-14 01:30N 38°02' E 023°32'0 0.0
2017-Nov-14 01:01N 38°02' E 023°32'0 0.0
2017-Nov-14 00:31N 38°02' E 023°32'0 0.0
2017-Nov-14 00:00N 38°02' E 023°32'0 0.0
2017-Nov-13 23:31N 38°02' E 023°32'0 0.0
2017-Nov-13 23:01N 38°02' E 023°32'0 0.0
2017-Nov-13 22:30N 38°02' E 023°32'0 0.0
2017-Nov-13 22:01N 38°02' E 023°32'  
2017-Nov-10 00:53N 38°07' E 022°38'4 8.1
2017-Nov-10 00:26N 38°05' E 022°42'4 8.4
2017-Nov-10 00:00N 38°03' E 022°46'4 7.6
2017-Nov-09 23:30N 38°01' E 022°50'3 7.1
2017-Nov-09 23:00N 37°59' E 022°54'4 7.0
2017-Nov-09 22:30N 37°57' E 022°58'3 3.8
2017-Nov-09 21:49N 37°55' E 023°00'2 5.3
2017-Nov-09 21:30N 37°55' E 023°02'4 8.9
2017-Nov-09 21:00N 37°54' E 023°08'5 9.2
2017-Nov-09 20:30N 37°55' E 023°13'5 9.3
2017-Nov-09 20:00N 37°56' E 023°19'5 9.2
2017-Nov-09 19:30N 37°57' E 023°25'3 6.7
2017-Nov-09 19:00N 38°00' E 023°27'4 8.8
2017-Nov-09 18:30N 38°02' E 023°32'0 0.5
2017-Nov-09 18:00N 38°02' E 023°32'0 0.0
2017-Nov-09 17:30N 38°02' E 023°32'0 0.0
2017-Nov-09 17:00N 38°02' E 023°32'0 0.0
2017-Nov-09 16:30N 38°02' E 023°32'0 0.0
2017-Nov-09 16:00N 38°02' E 023°32'0 0.0
2017-Nov-09 15:30N 38°02' E 023°32'0 0.0
2017-Nov-09 15:00N 38°02' E 023°32'0 0.0
2017-Nov-09 14:30N 38°02' E 023°32'0 0.0
2017-Nov-09 14:00N 38°02' E 023°32'0 0.0
2017-Nov-09 13:30N 38°02' E 023°32'0 0.0
2017-Nov-09 13:00N 38°02' E 023°32'0 0.0
2017-Nov-09 12:30N 38°02' E 023°32'0 0.0
2017-Nov-09 12:00N 38°02' E 023°32'0 0.0
2017-Nov-09 11:30N 38°02' E 023°32'0 0.0
2017-Nov-09 11:00N 38°02' E 023°32'0 0.0
2017-Nov-09 10:30N 38°02' E 023°32'0 0.0
2017-Nov-09 10:00N 38°02' E 023°32'0 0.0
2017-Nov-09 09:30N 38°02' E 023°32'0 0.0
2017-Nov-09 09:00N 38°02' E 023°32'0 0.0
2017-Nov-09 08:30N 38°02' E 023°32'0 0.0
2017-Nov-09 08:00N 38°02' E 023°32'0 0.0
2017-Nov-09 07:30N 38°02' E 023°32'0 0.0
2017-Nov-09 07:00N 38°02' E 023°32'0 0.0
2017-Nov-09 06:30N 38°02' E 023°32'0 0.0
2017-Nov-09 06:00N 38°02' E 023°32'0 0.0
2017-Nov-09 05:30N 38°02' E 023°32'0 0.0
2017-Nov-09 05:00N 38°02' E 023°32'0 0.0
2017-Nov-09 04:30N 38°02' E 023°32'0 0.0
2017-Nov-09 04:00N 38°02' E 023°32'0 0.0
2017-Nov-09 03:30N 38°02' E 023°32'0 0.0
2017-Nov-09 03:00N 38°02' E 023°32'0 0.0
2017-Nov-09 02:30N 38°02' E 023°32'0 0.0
2017-Nov-09 02:00N 38°02' E 023°32'0 0.0
2017-Nov-09 01:30N 38°02' E 023°32'0 0.0
2017-Nov-09 01:00N 38°02' E 023°32'0 0.0
2017-Nov-09 00:30N 38°02' E 023°32'0 0.0
2017-Nov-09 00:00N 38°02' E 023°32'0 0.0
2017-Nov-08 23:30N 38°02' E 023°32'0 0.0
2017-Nov-08 23:00N 38°02' E 023°32'0 0.0
2017-Nov-08 22:30N 38°02' E 023°32'0 0.0
2017-Nov-08 22:00N 38°02' E 023°32'0 0.0
2017-Nov-08 21:30N 38°02' E 023°32'0 0.0
2017-Nov-08 21:00N 38°02' E 023°32'0 0.0
2017-Nov-08 20:30N 38°02' E 023°32'0 0.0
2017-Nov-08 20:00N 38°02' E 023°32'0 0.0
2017-Nov-08 19:30N 38°02' E 023°32'0 0.0
2017-Nov-08 19:00N 38°02' E 023°32'0 0.0
2017-Nov-08 18:30N 38°02' E 023°32'0 0.0
2017-Nov-08 18:00N 38°02' E 023°32'0 0.0
2017-Nov-08 17:30N 38°02' E 023°32'0 0.0
2017-Nov-08 17:00N 38°02' E 023°32'0 0.0
2017-Nov-08 16:30N 38°02' E 023°32'0 0.0
2017-Nov-08 16:00N 38°02' E 023°32'0 0.0
2017-Nov-08 15:30N 38°02' E 023°32'0 0.0
2017-Nov-08 15:00N 38°02' E 023°32'0 0.0
2017-Nov-08 14:30N 38°02' E 023°32'0 0.0
2017-Nov-08 14:00N 38°02' E 023°32'0 0.0
2017-Nov-08 13:30N 38°02' E 023°32'0 0.0
2017-Nov-08 13:00N 38°02' E 023°32'0 0.0
2017-Nov-08 12:30N 38°02' E 023°32'0 0.0
2017-Nov-08 12:00N 38°02' E 023°32'0 0.0
2017-Nov-08 11:30N 38°02' E 023°32'0 0.0
2017-Nov-08 11:00N 38°02' E 023°32'0 0.0
2017-Nov-08 10:30N 38°02' E 023°32'0 0.0
2017-Nov-08 10:00N 38°02' E 023°32'0 0.0
2017-Nov-08 09:30N 38°02' E 023°32'0 0.0
2017-Nov-08 09:00N 38°02' E 023°32'0 0.0
2017-Nov-08 08:30N 38°02' E 023°32'0 0.0
2017-Nov-08 08:00N 38°02' E 023°32'0 0.0
2017-Nov-08 07:30N 38°02' E 023°32'0 0.0
2017-Nov-08 07:00N 38°02' E 023°32'0 0.6
2017-Nov-08 06:30N 38°02' E 023°32'0 0.0
2017-Nov-08 06:00N 38°02' E 023°32'0 0.0
2017-Nov-08 05:30N 38°02' E 023°32'0 0.0
2017-Nov-08 05:00N 38°02' E 023°32'0 0.0
2017-Nov-08 04:30N 38°02' E 023°32'0 0.0
2017-Nov-08 04:00N 38°02' E 023°32'0 0.0
2017-Nov-08 03:30N 38°02' E 023°32'0 0.0
2017-Nov-08 03:00N 38°02' E 023°32'0 0.0
2017-Nov-08 02:30N 38°02' E 023°32'0 0.0
2017-Nov-08 02:00N 38°02' E 023°32'0 0.0
2017-Nov-08 01:30N 38°02' E 023°32'0 0.0
2017-Nov-08 01:00N 38°02' E 023°32'0 0.0
2017-Nov-08 00:30N 38°02' E 023°32'0 0.0
2017-Nov-08 00:00N 38°02' E 023°32'0 0.5
2017-Nov-07 23:30N 38°02' E 023°31'1 1.0
2017-Nov-07 23:00N 38°02' E 023°31'0 0.0
2017-Nov-07 22:30N 38°02' E 023°31'0 0.0
2017-Nov-07 22:00N 38°02' E 023°31'0 0.0
2017-Nov-07 21:30N 38°02' E 023°31'0 0.0
2017-Nov-07 21:00N 38°02' E 023°31'0 0.0
2017-Nov-07 20:30N 38°02' E 023°31'0 0.0
2017-Nov-07 20:00N 38°02' E 023°31'0 0.0
2017-Nov-07 19:30N 38°02' E 023°31'0 0.0
2017-Nov-07 19:00N 38°02' E 023°31'0 0.0
2017-Nov-07 18:30N 38°02' E 023°31'0 0.0
2017-Nov-07 18:00N 38°02' E 023°31'0 0.0
2017-Nov-07 17:30N 38°02' E 023°31'0 0.0
2017-Nov-07 17:00N 38°02' E 023°31'0 0.0
2017-Nov-07 16:30N 38°02' E 023°31'0 0.0
2017-Nov-07 16:00N 38°02' E 023°31'0 0.0
2017-Nov-07 15:30N 38°02' E 023°31'0 0.0
2017-Nov-07 15:00N 38°02' E 023°31'0 0.0
2017-Nov-07 14:30N 38°02' E 023°31'0 0.0
2017-Nov-07 14:00N 38°02' E 023°31'2 5.0
2017-Nov-07 13:30N 38°02' E 023°34'1 2.9
2017-Nov-07 13:00N 38°02' E 023°36'0 0.0
2017-Nov-07 12:30N 38°02' E 023°36'0 0.0
2017-Nov-07 12:00N 38°02' E 023°36'0 0.0
2017-Nov-07 11:29N 38°02' E 023°36'0 0.0
2017-Nov-07 11:00N 38°02' E 023°36'0 0.0
2017-Nov-07 10:30N 38°02' E 023°36'3 6.0
2017-Nov-07 10:01N 38°02' E 023°32'0 0.2
2017-Nov-07 09:30N 38°02' E 023°32'0 0.0
2017-Nov-07 09:00N 38°02' E 023°32'0 0.0
2017-Nov-07 08:30N 38°02' E 023°32'0 0.7
2017-Nov-07 08:00N 38°02' E 023°32'0 0.1
2017-Nov-07 07:30N 38°02' E 023°32'0 0.6
2017-Nov-07 07:00N 38°02' E 023°32'0 0.0
2017-Nov-07 06:30N 38°02' E 023°32'0 0.0
2017-Nov-07 06:00N 38°02' E 023°32'0 0.0
2017-Nov-07 05:30N 38°02' E 023°32'0 0.0
2017-Nov-07 05:00N 38°02' E 023°32'0 0.0
2017-Nov-07 04:30N 38°02' E 023°32'0 0.0
2017-Nov-07 04:00N 38°02' E 023°32'0 0.0
2017-Nov-07 03:30N 38°02' E 023°32'0 0.0
2017-Nov-07 03:00N 38°02' E 023°32'0 0.0
2017-Nov-07 02:30N 38°02' E 023°32'0 0.0
2017-Nov-07 02:00N 38°02' E 023°32'0 0.0
2017-Nov-07 01:30N 38°02' E 023°32'0 0.0
2017-Nov-07 01:00N 38°02' E 023°32'0 0.0
2017-Nov-07 00:30N 38°02' E 023°32'0 0.0
2017-Nov-07 00:00N 38°02' E 023°32'0 0.0
2017-Nov-06 23:30N 38°02' E 023°32'0 0.0
2017-Nov-06 23:00N 38°02' E 023°32'0 0.0
2017-Nov-06 22:30N 38°02' E 023°32'0 0.0
2017-Nov-06 22:00N 38°02' E 023°32'0 0.0
2017-Nov-06 21:30N 38°02' E 023°32'0 0.0
2017-Nov-06 21:00N 38°02' E 023°32'0 0.0
2017-Nov-06 20:30N 38°02' E 023°32'  

Dump ship's entire track history